createdAt,value
2023-04-28T00:02:27.119Z,101897.91
2023-04-28T00:04:56.704Z,101889.19
2023-04-28T00:07:25.371Z,101879.75
2023-04-28T00:09:53.034Z,101885.94
2023-04-28T00:12:20.666Z,101880.91
2023-04-28T00:14:48.349Z,101881.13
2023-04-28T00:17:15.985Z,101887.22
2023-04-28T00:19:43.667Z,101882.81
2023-04-28T00:22:12.641Z,101877.34
2023-04-28T00:24:41.825Z,101876.59
2023-04-28T00:27:09.481Z,101883.63
2023-04-28T00:29:37.794Z,101877.66
2023-04-28T00:32:05.482Z,101877.66
2023-04-28T00:34:33.909Z,101874.31
2023-04-28T00:37:01.600Z,101872.72
2023-04-28T00:39:31.000Z,101879.88
2023-04-28T00:41:58.927Z,101880.94
2023-04-28T00:44:26.523Z,101870.53
2023-04-28T00:46:54.822Z,101874.94
2023-04-28T00:49:22.657Z,101879.47
2023-04-28T00:51:50.411Z,101876.81
2023-04-28T00:54:18.366Z,101875.16
2023-04-28T00:56:48.721Z,101876.09
2023-04-28T00:59:16.381Z,101877.03
2023-04-28T01:01:44.854Z,101866.53
2023-04-28T01:04:12.893Z,101869.78
2023-04-28T01:06:42.744Z,101869.78
2023-04-28T01:09:10.478Z,101870.41
2023-04-28T01:11:38.047Z,101868.41
2023-04-28T01:14:07.161Z,101870.81
2023-04-28T01:16:35.250Z,101871.44
2023-04-28T01:19:04.206Z,101862.38
2023-04-28T01:21:32.910Z,101863.63
2023-04-28T01:24:02.053Z,101860.56
2023-04-28T01:26:29.670Z,101867.88
2023-04-28T01:28:57.281Z,101864.81
2023-04-28T01:31:25.586Z,101861.00
2023-04-28T01:33:53.316Z,101853.75
2023-04-28T01:36:22.560Z,101862.25
2023-04-28T01:38:50.828Z,101854.00
2023-04-28T01:41:19.846Z,101856.19
2023-04-28T01:43:47.502Z,101862.06
2023-04-28T01:46:15.193Z,101856.34
2023-04-28T01:48:42.841Z,101859.47
2023-04-28T01:51:10.665Z,101854.50
2023-04-28T01:53:38.315Z,101859.31
2023-04-28T01:56:06.137Z,101861.47
2023-04-28T01:58:35.119Z,101854.16
2023-04-28T02:01:02.781Z,101864.34
2023-04-28T02:03:30.524Z,101850.72
2023-04-28T02:05:58.997Z,101845.00
2023-04-28T02:08:26.646Z,101856.97
2023-04-28T02:10:54.285Z,101846.09
2023-04-28T02:13:21.881Z,101839.50
2023-04-28T02:15:50.935Z,101845.38
2023-04-28T02:18:18.523Z,101837.97
2023-04-28T02:20:46.296Z,101848.16
2023-04-28T02:23:13.983Z,101842.66
2023-04-28T02:25:41.618Z,101830.91
2023-04-28T02:28:09.175Z,101837.38
2023-04-28T02:30:36.754Z,101827.44
2023-04-28T02:33:06.291Z,101824.31
2023-04-28T02:35:33.904Z,101825.63
2023-04-28T02:38:01.596Z,101822.75
2023-04-28T02:40:29.331Z,101824.41
2023-04-28T02:42:56.944Z,101813.63
2023-04-28T02:45:24.541Z,101825.03
2023-04-28T02:47:52.183Z,101812.44
2023-04-28T02:50:21.395Z,101809.81
2023-04-28T02:52:49.313Z,101804.53
2023-04-28T02:55:23.880Z,101803.59
2023-04-28T02:57:51.635Z,101802.50
2023-04-28T03:00:19.736Z,101799.88
2023-04-28T03:02:47.531Z,101793.66
2023-04-28T03:05:15.599Z,101788.47
2023-04-28T03:07:44.661Z,101787.63
2023-04-28T03:10:12.588Z,101791.81
2023-04-28T03:12:40.514Z,101791.81
2023-04-28T03:15:09.431Z,101789.91
2023-04-28T03:17:39.089Z,101786.31
2023-04-28T03:20:08.038Z,101786.19
2023-04-28T03:22:35.958Z,101785.34
2023-04-28T03:25:05.394Z,101775.66
2023-04-28T03:27:33.088Z,101780.94
2023-04-28T03:30:00.729Z,101769.53
2023-04-28T03:32:28.376Z,101773.25
2023-04-28T03:34:56.114Z,101764.50
2023-04-28T03:37:23.832Z,101768.84
2023-04-28T03:39:51.489Z,101765.47
2023-04-28T03:42:20.481Z,101752.44
2023-04-28T03:44:48.130Z,101758.78
2023-04-28T03:47:15.871Z,101749.09
2023-04-28T03:49:43.477Z,101753.50
2023-04-28T03:52:11.295Z,101751.00
2023-04-28T03:54:38.868Z,101752.78
2023-04-28T03:57:06.464Z,101749.91
2023-04-28T03:59:35.456Z,101742.13
2023-04-28T04:02:03.190Z,101748.25
2023-04-28T04:04:31.193Z,101748.00
2023-04-28T04:06:59.796Z,101741.63
2023-04-28T04:09:27.419Z,101744.03
2023-04-28T04:11:55.229Z,101736.97
2023-04-28T04:14:22.823Z,101735.03
2023-04-28T04:16:52.009Z,101727.72
2023-04-28T04:19:19.656Z,101729.25
2023-04-28T04:21:47.459Z,101728.31
2023-04-28T04:24:15.343Z,101730.09
2023-04-28T04:26:43.170Z,101727.06
2023-04-28T04:29:10.888Z,101728.00
2023-04-28T04:31:38.808Z,101729.97
2023-04-28T04:34:07.794Z,101723.09
2023-04-28T04:36:35.755Z,101724.47
2023-04-28T04:39:03.632Z,101725.06
2023-04-28T04:41:31.304Z,101724.94
2023-04-28T04:43:58.915Z,101728.28
2023-04-28T04:46:26.859Z,101727.44
2023-04-28T04:48:54.489Z,101724.81
2023-04-28T04:51:23.480Z,101712.19
2023-04-28T04:53:51.227Z,101719.75
2023-04-28T04:56:18.841Z,101714.75
2023-04-28T04:58:46.424Z,101701.97
2023-04-28T05:01:14.000Z,101710.59
2023-04-28T05:03:41.626Z,101718.00
2023-04-28T05:06:09.282Z,101713.25
2023-04-28T05:08:38.258Z,101707.31
2023-04-28T05:11:06.104Z,101700.63
2023-04-28T05:13:33.751Z,101691.19
2023-04-28T05:16:01.480Z,101681.13
2023-04-28T05:18:29.296Z,101671.75
2023-04-28T05:20:56.895Z,101663.50
2023-04-28T05:23:25.018Z,101656.31
2023-04-28T05:25:53.989Z,101649.34
2023-04-28T05:28:22.161Z,101658.47
2023-04-28T05:30:50.059Z,101648.75
2023-04-28T05:33:17.610Z,101646.28
2023-04-28T05:35:45.334Z,101647.06
2023-04-28T05:38:12.979Z,101644.88
2023-04-28T05:40:40.562Z,101643.13
2023-04-28T05:43:09.515Z,101637.31
2023-04-28T05:45:37.342Z,101639.25
2023-04-28T05:48:05.637Z,101633.91
2023-04-28T05:50:33.385Z,101643.16
2023-04-28T05:53:00.987Z,101640.94
2023-04-28T05:55:28.931Z,101636.63
2023-04-28T05:57:56.562Z,101635.19
2023-04-28T06:00:25.994Z,101629.78
2023-04-28T06:02:53.726Z,101630.41
2023-04-28T06:05:21.978Z,101630.50
2023-04-28T06:07:50.322Z,101635.22
2023-04-28T06:10:18.335Z,101628.31
2023-04-28T06:12:46.393Z,101631.31
2023-04-28T06:15:13.994Z,101633.03
2023-04-28T06:17:43.422Z,101626.59
2023-04-28T06:20:13.950Z,101632.41
2023-04-28T06:22:41.782Z,101637.00
2023-04-28T06:25:10.343Z,101637.63
2023-04-28T06:27:38.218Z,101626.53
2023-04-28T06:30:07.009Z,101623.41
2023-04-28T06:32:34.754Z,101627.38
2023-04-28T06:35:03.852Z,101620.03
2023-04-28T06:37:31.707Z,101620.78
2023-04-28T06:39:59.307Z,101615.47
2023-04-28T06:42:27.395Z,101615.19
2023-04-28T06:44:54.958Z,101617.34
2023-04-28T06:47:22.587Z,101611.38
2023-04-28T06:49:50.620Z,101608.88
2023-04-28T06:52:27.218Z,101611.03
2023-04-28T06:55:00.660Z,101617.97
2023-04-28T06:57:28.319Z,101615.84
2023-04-28T06:59:56.006Z,101619.81
2023-04-28T07:02:23.714Z,101601.50
2023-04-28T07:04:51.435Z,101606.16
2023-04-28T07:07:20.429Z,101600.53
2023-04-28T07:09:48.191Z,101596.50
2023-04-28T07:12:16.235Z,101597.41
2023-04-28T07:14:43.851Z,101592.63
2023-04-28T07:17:11.537Z,101598.00
2023-04-28T07:19:39.166Z,101602.25
2023-04-28T07:22:06.829Z,101598.00
2023-04-28T07:24:36.045Z,101600.25
2023-04-28T07:27:04.302Z,101586.75
2023-04-28T07:29:34.077Z,101593.56
2023-04-28T07:32:02.166Z,101596.50
2023-04-28T07:34:30.231Z,101588.00
2023-04-28T07:36:58.258Z,101588.09
2023-04-28T07:39:26.168Z,101583.31
2023-04-28T07:41:57.945Z,101584.34
2023-04-28T07:44:25.706Z,101585.97
2023-04-28T07:46:54.405Z,101587.47
2023-04-28T07:49:22.100Z,101585.63
2023-04-28T07:51:51.153Z,101577.72
2023-04-28T07:54:19.121Z,101566.84
2023-04-28T07:56:47.175Z,101568.28
2023-04-28T07:59:16.258Z,101562.44
2023-04-28T08:01:43.898Z,101571.84
2023-04-28T08:04:12.356Z,101566.09
2023-04-28T08:06:40.241Z,101558.53
2023-04-28T08:09:07.911Z,101559.09
2023-04-28T08:11:35.775Z,101570.00
2023-04-28T08:14:03.599Z,101560.22
2023-04-28T08:16:32.957Z,101546.56
2023-04-28T08:19:00.797Z,101552.34
2023-04-28T08:21:28.621Z,101560.13
2023-04-28T08:23:56.246Z,101550.44
2023-04-28T08:26:25.053Z,101543.03
2023-04-28T08:28:52.675Z,101554.59
2023-04-28T08:31:20.324Z,101542.19
2023-04-28T08:33:51.194Z,101538.06
2023-04-28T08:36:19.304Z,101536.94
2023-04-28T08:38:47.355Z,101533.56
2023-04-28T08:41:16.768Z,101529.28
2023-04-28T08:43:45.503Z,101522.38
2023-04-28T08:46:15.864Z,101524.28
2023-04-28T08:48:45.208Z,101516.72
2023-04-28T08:51:18.590Z,101519.16
2023-04-28T08:56:23.237Z,101513.88
2023-04-28T08:58:52.372Z,101510.94
2023-04-28T09:01:20.041Z,101512.34
2023-04-28T09:03:49.281Z,101506.47
2023-04-28T09:06:18.554Z,101508.16
2023-04-28T09:08:46.328Z,101495.75
2023-04-28T09:11:14.762Z,101501.72
2023-04-28T09:13:42.546Z,101503.31
2023-04-28T09:16:10.416Z,101505.31
2023-04-28T09:18:38.108Z,101495.22
2023-04-28T09:21:07.740Z,101491.34
2023-04-28T09:23:49.104Z,101489.91
2023-04-28T09:26:16.820Z,101484.03
2023-04-28T09:28:44.471Z,101484.66
2023-04-28T09:31:24.007Z,101484.03
2023-04-28T09:33:58.333Z,101475.41
2023-04-28T09:36:30.613Z,101467.81
2023-04-28T09:39:00.331Z,101471.69
2023-04-28T09:41:37.905Z,101459.59
2023-04-28T09:44:13.027Z,101463.47
2023-04-28T09:46:41.173Z,101458.63
2023-04-28T09:49:09.354Z,101454.31
2023-04-28T09:51:37.568Z,101446.47
2023-04-28T09:54:07.115Z,101450.19
2023-04-28T09:56:40.741Z,101461.53
2023-04-28T09:59:08.438Z,101444.81
2023-04-28T10:01:39.610Z,101442.53
2023-04-28T10:04:09.028Z,101435.69
2023-04-28T10:06:37.381Z,101437.53
2023-04-28T10:09:07.283Z,101438.38
2023-04-28T10:11:35.634Z,101430.97
2023-04-28T10:14:03.275Z,101441.91
2023-04-28T10:16:32.661Z,101430.34
2023-04-28T10:19:03.103Z,101421.28
2023-04-28T10:21:37.316Z,101426.03
2023-04-28T10:24:11.632Z,101424.78
2023-04-28T10:27:09.337Z,101417.94
2023-04-28T10:29:37.612Z,101410.13
2023-04-28T10:32:19.613Z,101413.22
2023-04-28T10:34:48.158Z,101409.94
2023-04-28T10:37:17.136Z,101411.59
2023-04-28T10:40:18.053Z,101394.03
2023-04-28T10:42:57.492Z,101385.94
2023-04-28T10:46:04.670Z,101380.16
2023-04-28T10:49:00.049Z,101384.91
2023-04-28T10:51:31.854Z,101387.63
2023-04-28T10:54:19.209Z,101387.41
2023-04-28T10:57:21.313Z,101377.69
2023-04-28T10:59:51.643Z,101385.56
2023-04-28T11:02:44.209Z,101374.59
2023-04-28T11:05:22.664Z,101369.25
2023-04-28T11:08:30.903Z,101362.22
2023-04-28T11:11:18.542Z,101359.50
2023-04-28T11:13:47.836Z,101355.75
2023-04-28T11:16:18.554Z,101355.31
2023-04-28T11:18:55.907Z,101359.88
2023-04-28T11:21:26.003Z,101364.88
2023-04-28T11:23:53.680Z,101357.19
2023-04-28T11:26:23.511Z,101351.38
2023-04-28T11:28:56.163Z,101350.81
2023-04-28T11:31:26.594Z,101349.38
2023-04-28T11:33:57.626Z,101346.00
2023-04-28T11:36:31.907Z,101351.06
2023-04-28T11:39:00.167Z,101343.09
2023-04-28T11:41:27.857Z,101338.41
2023-04-28T11:43:55.606Z,101339.13
2023-04-28T11:46:26.193Z,101331.63
2023-04-28T11:49:05.626Z,101325.28
2023-04-28T11:51:38.445Z,101333.41
2023-04-28T11:54:07.875Z,101332.75
2023-04-28T11:56:38.935Z,101329.94
2023-04-28T11:59:09.111Z,101321.13
2023-04-28T12:01:46.813Z,101330.31
2023-04-28T12:04:15.459Z,101329.78
2023-04-28T12:06:43.275Z,101324.75
2023-04-28T12:09:18.045Z,101316.16
2023-04-28T12:11:56.910Z,101312.66
2023-04-28T12:14:25.279Z,101309.97
2023-04-28T12:16:54.369Z,101312.50
2023-04-28T12:19:22.355Z,101309.66
2023-04-28T12:22:04.455Z,101300.78
2023-04-28T12:24:33.404Z,101305.03
2023-04-28T12:27:18.036Z,101299.97
2023-04-28T12:29:47.251Z,101304.84
2023-04-28T12:32:17.343Z,101300.03
2023-04-28T12:34:47.279Z,101304.56
2023-04-28T12:37:15.122Z,101293.41
2023-04-28T12:39:43.479Z,101294.78
2023-04-28T12:42:11.716Z,101296.28
2023-04-28T12:44:40.736Z,101304.16
2023-04-28T12:47:10.773Z,101290.53
2023-04-28T12:49:39.985Z,101295.59
2023-04-28T12:52:07.857Z,101298.41
2023-04-28T12:54:35.798Z,101293.59
2023-04-28T12:57:04.021Z,101300.41
2023-04-28T12:59:32.633Z,101293.97
2023-04-28T13:02:00.672Z,101294.41
2023-04-28T13:04:28.548Z,101290.75
2023-04-28T13:06:58.461Z,101291.84
2023-04-28T13:09:27.083Z,101278.13
2023-04-28T13:11:55.133Z,101283.50
2023-04-28T13:14:23.994Z,101273.75
2023-04-28T13:16:51.961Z,101279.09
2023-04-28T13:19:19.646Z,101267.34
2023-04-28T13:21:47.972Z,101276.69
2023-04-28T13:24:17.064Z,101274.00
2023-04-28T13:26:45.295Z,101269.94
2023-04-28T13:29:14.332Z,101268.50
2023-04-28T13:31:42.157Z,101268.25
2023-04-28T13:34:15.716Z,101261.44
2023-04-28T13:36:43.515Z,101263.44
2023-04-28T13:39:14.074Z,101247.75
2023-04-28T13:41:43.467Z,101257.50
2023-04-28T13:44:11.295Z,101247.25
2023-04-28T13:46:39.270Z,101246.00
2023-04-28T13:49:07.276Z,101249.88
2023-04-28T13:51:35.272Z,101251.53
2023-04-28T13:54:04.384Z,101252.38
2023-04-28T13:56:33.426Z,101259.19
2023-04-28T13:59:02.423Z,101256.31
2023-04-28T14:01:30.622Z,101253.22
2023-04-28T14:03:58.527Z,101253.88
2023-04-28T14:06:27.595Z,101251.97
2023-04-28T14:08:55.385Z,101242.50
2023-04-28T14:11:23.233Z,101242.06
2023-04-28T14:13:50.858Z,101243.56
2023-04-28T14:16:19.962Z,101235.50
2023-04-28T14:18:47.780Z,101235.91
2023-04-28T14:21:15.423Z,101237.34
2023-04-28T14:23:43.096Z,101249.94
2023-04-28T14:26:10.904Z,101237.78
2023-04-28T14:28:38.554Z,101237.31
2023-04-28T14:31:08.672Z,101236.09
2023-04-28T14:33:37.997Z,101229.94
2023-04-28T14:36:06.056Z,101219.63
2023-04-28T14:38:33.660Z,101225.38
2023-04-28T14:41:01.314Z,101227.03
2023-04-28T14:43:28.957Z,101232.19
2023-04-28T14:45:56.662Z,101231.94
2023-04-28T14:48:24.310Z,101224.09
2023-04-28T14:50:53.416Z,101226.13
2023-04-28T14:53:21.196Z,101223.88
2023-04-28T14:55:49.404Z,101213.06
2023-04-28T14:58:17.178Z,101213.03
2023-04-28T15:00:45.249Z,101213.41
2023-04-28T15:03:13.435Z,101215.00
2023-04-28T15:05:41.167Z,101217.94
2023-04-28T15:08:11.575Z,101206.25
2023-04-28T15:10:40.653Z,101199.84
2023-04-28T15:13:08.656Z,101204.34
2023-04-28T15:15:36.859Z,101197.06
2023-04-28T15:18:04.964Z,101192.34
2023-04-28T15:20:34.074Z,101187.66
2023-04-28T15:23:01.906Z,101189.72
2023-04-28T15:25:31.294Z,101189.84
2023-04-28T15:27:59.001Z,101191.66
2023-04-28T15:30:26.677Z,101190.91
2023-04-28T15:32:54.842Z,101206.56
2023-04-28T15:35:22.663Z,101204.47
2023-04-28T15:37:52.106Z,101207.00
2023-04-28T15:40:21.283Z,101198.22
2023-04-28T15:42:52.021Z,101197.59
2023-04-28T15:45:20.770Z,101205.47
2023-04-28T15:47:50.445Z,101193.25
2023-04-28T15:50:20.131Z,101204.97
2023-04-28T15:52:49.977Z,101196.44
2023-04-28T15:55:19.895Z,101209.94
2023-04-28T15:57:48.326Z,101203.91
2023-04-28T16:00:17.896Z,101206.47
2023-04-28T16:02:46.466Z,101210.44
2023-04-28T16:05:14.450Z,101207.84
2023-04-28T16:07:42.141Z,101203.53
2023-04-28T16:10:11.742Z,101200.09
2023-04-28T16:12:40.511Z,101199.28
2023-04-28T16:15:09.975Z,101199.78
2023-04-28T16:17:39.676Z,101200.78
2023-04-28T16:20:09.507Z,101199.50
2023-04-28T16:22:38.083Z,101208.53
2023-04-28T16:25:06.703Z,101207.81
2023-04-28T16:27:34.967Z,101198.22
2023-04-28T16:30:02.660Z,101204.94
2023-04-28T16:32:31.328Z,101204.22
2023-04-28T16:35:00.605Z,101204.13
2023-04-28T16:37:28.184Z,101199.53
2023-04-28T16:39:56.669Z,101198.78
2023-04-28T16:42:24.631Z,101195.78
2023-04-28T16:44:53.085Z,101202.78
2023-04-28T16:47:21.130Z,101195.16
2023-04-28T16:49:49.225Z,101190.09
2023-04-28T16:52:18.421Z,101194.06
2023-04-28T16:54:46.182Z,101192.13
2023-04-28T16:57:13.834Z,101190.34
2023-04-28T16:59:41.604Z,101191.41
2023-04-28T17:02:09.361Z,101190.31
2023-04-28T17:04:37.768Z,101193.91
2023-04-28T17:07:05.886Z,101197.38
2023-04-28T17:09:34.891Z,101193.22
2023-04-28T17:12:03.545Z,101188.19
2023-04-28T17:14:31.303Z,101199.66
2023-04-28T17:16:59.034Z,101195.97
2023-04-28T17:19:27.380Z,101194.16
2023-04-28T17:21:55.593Z,101200.69
2023-04-28T17:24:24.614Z,101204.06
2023-04-28T17:26:54.967Z,101197.63
2023-04-28T17:29:23.148Z,101201.44
2023-04-28T17:31:50.908Z,101208.63
2023-04-28T17:34:19.927Z,101198.50
2023-04-28T17:36:47.780Z,101202.34
2023-04-28T17:39:16.541Z,101210.97
2023-04-28T17:41:44.925Z,101205.84
2023-04-28T17:44:14.094Z,101216.50
2023-04-28T17:46:41.823Z,101214.69
2023-04-28T17:49:09.438Z,101221.34
2023-04-28T17:51:38.083Z,101225.84
2023-04-28T17:54:09.613Z,101226.03
2023-04-28T17:56:38.891Z,101225.22
2023-04-28T17:59:08.214Z,101233.91
2023-04-28T18:01:37.255Z,101227.81
2023-04-28T18:04:05.128Z,101226.78
2023-04-28T18:06:32.717Z,101229.81
2023-04-28T18:09:00.350Z,101238.34
2023-04-28T18:11:28.088Z,101231.34
2023-04-28T18:13:56.009Z,101229.03
2023-04-28T18:16:23.665Z,101233.88
2023-04-28T18:18:52.805Z,101238.19
2023-04-28T18:21:20.526Z,101234.91
2023-04-28T18:23:48.242Z,101241.09
2023-04-28T18:26:16.362Z,101231.47
2023-04-28T18:28:46.997Z,101244.44
2023-04-28T18:31:14.876Z,101230.16
2023-04-28T18:33:42.530Z,101246.13
2023-04-28T18:36:11.634Z,101232.66
2023-04-28T18:38:39.292Z,101235.53
2023-04-28T18:41:14.136Z,101235.03
2023-04-28T18:43:42.640Z,101235.53
2023-04-28T18:46:10.899Z,101234.25
2023-04-28T18:48:39.011Z,101235.91
2023-04-28T18:51:06.785Z,101225.59
2023-04-28T18:53:36.635Z,101233.47
2023-04-28T18:56:04.777Z,101234.81
2023-04-28T18:58:32.677Z,101241.13
2023-04-28T19:01:00.491Z,101245.16
2023-04-28T19:03:28.446Z,101242.50
2023-04-28T19:05:56.153Z,101240.50
2023-04-28T19:08:24.290Z,101239.03
2023-04-28T19:10:53.219Z,101239.19
2023-04-28T19:13:20.788Z,101238.69
2023-04-28T19:15:48.388Z,101253.16
2023-04-28T19:18:16.460Z,101250.81
2023-04-28T19:20:44.060Z,101254.00
2023-04-28T19:23:11.626Z,101244.03
2023-04-28T19:25:39.395Z,101264.00
2023-04-28T19:28:08.441Z,101264.63
2023-04-28T19:30:36.643Z,101259.81
2023-04-28T19:33:04.624Z,101265.28
2023-04-28T19:35:33.324Z,101260.31
2023-04-28T19:38:01.106Z,101257.84
2023-04-28T19:40:30.046Z,101260.50
2023-04-28T19:42:57.664Z,101257.34
2023-04-28T19:45:26.955Z,101252.88
2023-04-28T19:47:55.464Z,101258.34
2023-04-28T19:50:23.169Z,101253.06
2023-04-28T19:52:50.944Z,101258.72
2023-04-28T19:55:21.187Z,101255.06
2023-04-28T19:57:48.802Z,101256.22
2023-04-28T20:00:16.896Z,101263.38
2023-04-28T20:02:46.094Z,101251.06
2023-04-28T20:05:14.968Z,101266.03
2023-04-28T20:07:43.509Z,101259.22
2023-04-28T20:10:11.688Z,101265.69
2023-04-28T20:12:39.429Z,101258.56
2023-04-28T20:15:08.570Z,101264.19
2023-04-28T20:17:36.379Z,101267.88
2023-04-28T20:20:06.576Z,101265.72
2023-04-28T20:22:35.352Z,101263.72
2023-04-28T20:25:05.897Z,101252.91
2023-04-28T20:27:34.502Z,101262.06
2023-04-28T20:30:02.232Z,101269.22
2023-04-28T20:32:29.909Z,101262.72
2023-04-28T20:34:57.600Z,101257.25
2023-04-28T20:37:26.950Z,101265.03
2023-04-28T20:39:54.598Z,101264.69
2023-04-28T20:42:22.355Z,101263.03
2023-04-28T20:44:50.760Z,101263.03
2023-04-28T20:47:18.804Z,101258.56
2023-04-28T20:49:47.351Z,101261.06
2023-04-28T20:52:14.968Z,101257.22
2023-04-28T20:54:43.938Z,101255.56
2023-04-28T20:57:12.023Z,101266.19
2023-04-28T20:59:39.613Z,101263.88
2023-04-28T21:02:08.678Z,101254.72
2023-04-28T21:04:36.652Z,101261.03
2023-04-28T21:07:04.320Z,101260.19
2023-04-28T21:09:31.934Z,101252.06
2023-04-28T21:12:02.089Z,101245.75
2023-04-28T21:14:30.173Z,101246.25
2023-04-28T21:16:57.845Z,101248.41
2023-04-28T21:19:25.813Z,101252.06
2023-04-28T21:21:53.432Z,101245.09
2023-04-28T21:24:21.058Z,101247.75
2023-04-28T21:26:48.813Z,101251.06
2023-04-28T21:29:18.606Z,101256.38
2023-04-28T21:31:46.927Z,101249.25
2023-04-28T21:34:14.604Z,101256.56
2023-04-28T21:36:42.176Z,101250.41
2023-04-28T21:39:10.422Z,101260.72
2023-04-28T21:41:38.271Z,101261.22
2023-04-28T21:44:05.979Z,101262.19
2023-04-28T21:46:35.345Z,101268.47
2023-04-28T21:49:03.425Z,101265.16
2023-04-28T21:51:31.960Z,101268.34
2023-04-28T21:53:59.595Z,101271.00
2023-04-28T21:56:27.192Z,101262.03
2023-04-28T21:58:54.815Z,101259.03
2023-04-28T22:01:22.660Z,101260.22
2023-04-28T22:03:51.762Z,101259.72
2023-04-28T22:06:19.635Z,101262.38
2023-04-28T22:08:47.476Z,101260.91
2023-04-28T22:11:15.087Z,101258.38
2023-04-28T22:13:42.720Z,101254.09
2023-04-28T22:16:11.878Z,101260.41
2023-04-28T22:18:39.594Z,101259.56
2023-04-28T22:21:09.321Z,101262.06
2023-04-28T22:23:36.926Z,101264.03
2023-04-28T22:26:04.560Z,101271.53
2023-04-28T22:28:32.484Z,101270.69
2023-04-28T22:31:00.136Z,101266.38
2023-04-28T22:33:27.896Z,101265.38
2023-04-28T22:35:55.527Z,101272.50
2023-04-28T22:38:24.506Z,101261.53
2023-04-28T22:40:52.518Z,101276.47
2023-04-28T22:43:20.142Z,101265.34
2023-04-28T22:45:47.775Z,101279.97
2023-04-28T22:48:15.514Z,101273.00
2023-04-28T22:50:43.508Z,101269.50
2023-04-28T22:53:11.189Z,101277.47
2023-04-28T22:55:40.120Z,101272.16
2023-04-28T22:58:08.327Z,101269.34
2023-04-28T23:00:38.950Z,101270.50
2023-04-28T23:03:06.668Z,101266.34
2023-04-28T23:05:37.948Z,101273.00
2023-04-28T23:08:05.904Z,101262.72
2023-04-28T23:10:33.467Z,101267.00
2023-04-28T23:13:02.439Z,101255.38
2023-04-28T23:15:30.109Z,101265.72
2023-04-28T23:17:57.825Z,101260.25
2023-04-28T23:20:25.814Z,101253.91
2023-04-28T23:22:56.569Z,101256.06
2023-04-28T23:25:24.259Z,101256.06
2023-04-28T23:27:51.922Z,101264.53
2023-04-28T23:30:21.100Z,101254.25
2023-04-28T23:32:48.754Z,101255.09
2023-04-28T23:35:17.177Z,101250.75
2023-04-28T23:37:44.712Z,101248.78
2023-04-28T23:40:13.166Z,101255.72
2023-04-28T23:42:41.053Z,101256.56
2023-04-28T23:45:10.219Z,101255.22
2023-04-28T23:47:40.361Z,101257.06
2023-04-28T23:50:09.620Z,101260.06
2023-04-28T23:52:38.285Z,101267.53
2023-04-28T23:55:06.854Z,101274.34
2023-04-28T23:57:34.469Z,101269.56
